Sunfield, Michigan
Current Conditions -  °F | °C
As of 12:13 PM on Sunday 21 Dec 2014 (Local Time) from KY70 Reporting Station
Overcast Overcast  
Wind Chill: 25°   Ceiling: 5500
Heat Index: 33°   Visibility: 7mi
Dew Point: 27°   Wind: 12mph
Humidity: 76%   Direction: 190°S
Pressure: 30.22"   Gusts: NA
Location:  42.76°N, 84.99°W
Report Text: KY70 211713Z AUTO 19010KT 7SM SCT035 OVC055 01/M03 A3022 RMK AO2 T00081030
Loading
Personal Weather Stations






























Interactive Weather Map New forecast layout! Learn more

10-Day Weather Forecast

Advertisements
Track Severe Weather on mobile